createdAt,value
2022-08-27T00:01:19.252Z,3.40
2022-08-27T00:03:46.428Z,3.60
2022-08-27T00:06:15.572Z,3.40
2022-08-27T00:08:45.853Z,3.53
2022-08-27T00:11:13.348Z,3.30
2022-08-27T00:13:41.077Z,3.20
2022-08-27T00:16:10.886Z,3.20
2022-08-27T00:18:39.297Z,3.40
2022-08-27T00:21:07.072Z,3.07
2022-08-27T00:23:35.120Z,2.97
2022-08-27T00:26:03.014Z,2.83
2022-08-27T00:28:30.898Z,2.97
2022-08-27T00:30:58.114Z,2.87
2022-08-27T00:33:26.064Z,2.83
2022-08-27T00:35:53.615Z,2.80
2022-08-27T00:38:22.721Z,2.57
2022-08-27T00:40:50.760Z,2.70
2022-08-27T00:43:26.927Z,2.80
2022-08-27T00:45:58.996Z,2.37
2022-08-27T00:48:30.248Z,2.43
2022-08-27T00:50:57.828Z,2.23
2022-08-27T00:53:29.633Z,2.80
2022-08-27T00:56:02.657Z,2.37
2022-08-27T00:58:37.248Z,2.43
2022-08-27T01:01:09.020Z,2.17
2022-08-27T01:03:36.285Z,2.17
2022-08-27T01:06:06.259Z,2.50
2022-08-27T01:08:37.992Z,2.53
2022-08-27T01:11:06.920Z,2.53
2022-08-27T01:14:00.014Z,2.20
2022-08-27T01:16:34.665Z,2.23
2022-08-27T01:19:04.393Z,2.10
2022-08-27T01:21:45.201Z,2.10
2022-08-27T01:24:27.368Z,1.93
2022-08-27T01:26:54.375Z,2.07
2022-08-27T01:29:21.324Z,1.90
2022-08-27T01:31:48.377Z,1.90
2022-08-27T01:34:15.624Z,1.93
2022-08-27T01:36:42.625Z,2.00
2022-08-27T01:39:09.601Z,1.83
2022-08-27T01:41:40.597Z,1.90
2022-08-27T01:44:07.518Z,1.90
2022-08-27T01:46:34.630Z,2.10
2022-08-27T01:49:01.889Z,2.03
2022-08-27T01:51:28.992Z,2.00
2022-08-27T01:53:56.152Z,2.20
2022-08-27T01:56:23.128Z,1.90
2022-08-27T01:58:50.183Z,1.80
2022-08-27T02:01:19.872Z,1.83
2022-08-27T02:03:48.461Z,2.00
2022-08-27T02:06:15.492Z,1.80
2022-08-27T02:08:43.145Z,1.70
2022-08-27T02:11:10.110Z,1.87
2022-08-27T02:13:37.307Z,1.93
2022-08-27T02:16:05.498Z,1.70
2022-08-27T02:18:32.511Z,1.90
2022-08-27T02:20:59.511Z,1.80
2022-08-27T02:23:26.918Z,1.63
2022-08-27T02:25:54.076Z,1.83
2022-08-27T02:28:21.051Z,1.73
2022-08-27T02:30:48.171Z,1.70
2022-08-27T02:33:15.517Z,1.83
2022-08-27T02:35:44.355Z,1.80
2022-08-27T02:38:13.228Z,1.70
2022-08-27T02:40:40.761Z,1.67
2022-08-27T02:43:07.869Z,1.90
2022-08-27T02:45:37.565Z,1.57
2022-08-27T02:48:05.797Z,1.90
2022-08-27T02:50:33.671Z,1.60
2022-08-27T02:53:05.208Z,1.67
2022-08-27T02:55:33.149Z,1.47
2022-08-27T02:58:00.129Z,1.80
2022-08-27T03:00:28.881Z,1.80
2022-08-27T03:02:57.665Z,1.70
2022-08-27T03:05:25.653Z,1.67
2022-08-27T03:07:52.681Z,1.50
2022-08-27T03:10:21.072Z,1.47
2022-08-27T03:12:48.472Z,1.60
2022-08-27T03:15:18.962Z,1.43
2022-08-27T03:18:04.552Z,1.50
2022-08-27T03:20:31.955Z,1.53
2022-08-27T03:22:59.859Z,1.80
2022-08-27T03:25:27.944Z,1.50
2022-08-27T03:27:54.884Z,1.77
2022-08-27T03:30:23.878Z,1.60
2022-08-27T03:32:51.116Z,1.43
2022-08-27T03:35:22.136Z,1.80
2022-08-27T03:37:49.569Z,1.60
2022-08-27T03:40:17.535Z,1.80
2022-08-27T03:42:44.632Z,1.80
2022-08-27T03:45:12.536Z,1.60
2022-08-27T03:47:40.273Z,1.70
2022-08-27T03:50:08.528Z,1.70
2022-08-27T03:52:36.159Z,1.90
2022-08-27T03:55:04.987Z,1.53
2022-08-27T03:57:32.496Z,1.60
2022-08-27T04:00:00.275Z,2.03
2022-08-27T04:02:27.968Z,2.00
2022-08-27T04:04:57.935Z,2.00
2022-08-27T04:07:24.988Z,1.83
2022-08-27T04:09:52.171Z,1.87
2022-08-27T04:12:19.461Z,2.00
2022-08-27T04:14:46.544Z,2.07
2022-08-27T04:17:13.733Z,1.80
2022-08-27T04:19:40.873Z,1.70
2022-08-27T04:22:08.221Z,2.00
2022-08-27T04:24:37.997Z,2.10
2022-08-27T04:27:06.177Z,2.07
2022-08-27T04:29:34.180Z,2.00
2022-08-27T04:32:01.759Z,2.50
2022-08-27T04:34:29.261Z,2.37
2022-08-27T04:36:57.331Z,1.97
2022-08-27T04:39:25.865Z,2.20
2022-08-27T04:41:56.166Z,1.93
2022-08-27T04:44:24.124Z,2.10
2022-08-27T04:46:57.634Z,2.20
2022-08-27T04:49:25.440Z,2.20
2022-08-27T04:51:52.466Z,2.30
2022-08-27T04:54:19.614Z,2.17
2022-08-27T04:56:59.809Z,2.20
2022-08-27T04:59:27.062Z,2.30
2022-08-27T05:01:54.077Z,2.20
2022-08-27T05:04:21.130Z,2.23
2022-08-27T05:06:49.453Z,2.50
2022-08-27T05:09:18.302Z,2.70
2022-08-27T05:11:47.097Z,2.60
2022-08-27T05:14:16.218Z,2.20
2022-08-27T05:16:43.221Z,2.50
2022-08-27T05:19:14.632Z,2.20
2022-08-27T05:21:47.889Z,2.40
2022-08-27T05:24:16.132Z,2.30
2022-08-27T05:26:44.088Z,2.47
2022-08-27T05:29:11.701Z,2.20
2022-08-27T05:31:40.191Z,2.20
2022-08-27T05:34:10.250Z,2.70
2022-08-27T05:36:47.715Z,2.33
2022-08-27T05:39:16.834Z,2.17
2022-08-27T05:41:43.843Z,2.30
2022-08-27T05:44:39.663Z,2.40
2022-08-27T05:46:58.415Z,2.20
2022-08-27T05:49:25.969Z,2.13
2022-08-27T05:51:53.003Z,2.47
2022-08-27T05:54:20.189Z,2.27
2022-08-27T05:56:49.656Z,2.20
2022-08-27T05:59:35.452Z,2.63
2022-08-27T06:02:06.083Z,2.27
2022-08-27T06:04:33.426Z,2.30
2022-08-27T06:07:00.691Z,2.47
2022-08-27T06:09:31.429Z,2.27
2022-08-27T06:12:00.331Z,2.50
2022-08-27T06:14:27.761Z,2.33
2022-08-27T06:16:55.645Z,2.63
2022-08-27T06:19:23.929Z,2.70
2022-08-27T06:22:01.262Z,2.60
2022-08-27T06:24:41.508Z,2.73
2022-08-27T06:27:35.154Z,2.77
2022-08-27T06:30:22.809Z,2.93
2022-08-27T06:33:09.876Z,2.70
2022-08-27T06:35:36.920Z,3.13
2022-08-27T06:38:03.972Z,2.90
2022-08-27T06:40:31.066Z,2.60
2022-08-27T06:42:58.007Z,2.90
2022-08-27T06:45:25.009Z,3.23
2022-08-27T06:47:52.092Z,2.93
2022-08-27T06:50:23.247Z,2.87
2022-08-27T06:52:53.801Z,3.33
2022-08-27T06:55:20.901Z,3.40
2022-08-27T06:57:47.799Z,3.77
2022-08-27T07:00:15.450Z,3.23
2022-08-27T07:02:42.553Z,3.30
2022-08-27T07:05:11.814Z,3.30
2022-08-27T07:07:44.234Z,3.40
2022-08-27T07:10:14.063Z,3.53
2022-08-27T07:12:41.085Z,3.60
2022-08-27T07:15:08.657Z,3.33
2022-08-27T07:17:36.030Z,3.77
2022-08-27T07:20:04.469Z,3.60
2022-08-27T07:22:31.559Z,3.80
2022-08-27T07:24:58.498Z,3.20
2022-08-27T07:27:25.682Z,4.27
2022-08-27T07:29:53.136Z,3.90
2022-08-27T07:32:20.244Z,4.10
2022-08-27T07:34:47.341Z,3.80
2022-08-27T07:37:15.102Z,3.93
2022-08-27T07:39:42.367Z,3.80
2022-08-27T07:42:27.836Z,3.70
2022-08-27T07:44:54.733Z,3.93
2022-08-27T07:47:21.916Z,3.87
2022-08-27T07:49:50.877Z,4.17
2022-08-27T07:52:18.223Z,4.43
2022-08-27T07:54:45.244Z,4.30
2022-08-27T07:57:12.278Z,4.50
2022-08-27T07:59:39.462Z,4.50
2022-08-27T08:02:06.410Z,4.13
2022-08-27T08:04:33.653Z,4.30
2022-08-27T08:07:00.865Z,4.37
2022-08-27T08:09:47.885Z,3.73
2022-08-27T08:12:34.764Z,4.40
2022-08-27T08:15:22.016Z,4.47
2022-08-27T08:18:08.888Z,4.33
2022-08-27T08:20:58.361Z,4.40
2022-08-27T08:23:26.301Z,4.73
2022-08-27T08:25:53.297Z,4.70
2022-08-27T08:28:20.405Z,4.50
2022-08-27T08:31:07.546Z,4.50
2022-08-27T08:33:55.833Z,4.57
2022-08-27T08:36:42.972Z,4.73
2022-08-27T08:39:21.336Z,4.60
2022-08-27T08:41:56.957Z,5.03
2022-08-27T08:44:49.661Z,4.83
2022-08-27T08:47:27.837Z,5.07
2022-08-27T08:50:21.416Z,4.60
2022-08-27T08:53:05.333Z,5.03
2022-08-27T08:55:52.099Z,4.70
2022-08-27T08:58:48.012Z,4.87
2022-08-27T09:01:38.391Z,4.60
2022-08-27T09:04:29.555Z,5.30
2022-08-27T09:07:26.558Z,5.10
2022-08-27T09:10:39.357Z,4.37
2022-08-27T09:13:42.828Z,4.60
2022-08-27T09:16:30.127Z,4.83
2022-08-27T09:19:17.161Z,4.70
2022-08-27T09:22:23.230Z,4.83
2022-08-27T09:25:42.206Z,4.67
2022-08-27T09:28:38.700Z,5.13
2022-08-27T09:31:28.402Z,5.00
2022-08-27T09:34:16.327Z,4.53
2022-08-27T09:37:19.104Z,5.20
2022-08-27T09:40:27.815Z,4.60
2022-08-27T09:43:37.852Z,4.20
2022-08-27T09:46:41.417Z,4.13
2022-08-27T09:49:33.778Z,4.33
2022-08-27T09:52:21.633Z,4.60
2022-08-27T09:55:08.736Z,4.63
2022-08-27T09:58:01.278Z,4.47
2022-08-27T10:00:55.319Z,4.13
2022-08-27T10:03:42.629Z,4.80
2022-08-27T10:06:30.907Z,4.77
2022-08-27T10:09:26.359Z,4.33
2022-08-27T10:12:31.463Z,4.50
2022-08-27T10:15:20.685Z,4.53
2022-08-27T10:17:59.670Z,4.80
2022-08-27T10:20:51.347Z,4.60
2022-08-27T10:23:50.802Z,4.73
2022-08-27T10:26:56.226Z,4.27
2022-08-27T10:30:08.354Z,4.03
2022-08-27T10:33:03.887Z,4.40
2022-08-27T10:35:53.706Z,4.07
2022-08-27T10:39:00.043Z,4.13
2022-08-27T10:41:54.420Z,4.40
2022-08-27T10:44:59.574Z,4.23
2022-08-27T10:48:13.236Z,4.23
2022-08-27T10:51:03.132Z,5.27
2022-08-27T10:53:54.357Z,4.80
2022-08-27T10:57:26.503Z,4.27
2022-08-27T11:00:22.138Z,4.50
2022-08-27T11:03:23.047Z,4.80
2022-08-27T11:06:11.161Z,5.10
2022-08-27T11:09:13.872Z,4.53
2022-08-27T11:12:14.409Z,4.83
2022-08-27T11:15:23.064Z,5.40
2022-08-27T11:18:48.621Z,4.70
2022-08-27T11:22:05.824Z,5.10
2022-08-27T11:25:12.321Z,5.07
2022-08-27T11:28:00.808Z,5.03
2022-08-27T11:31:18.012Z,5.00
2022-08-27T11:34:30.064Z,4.63
2022-08-27T11:37:26.970Z,5.77
2022-08-27T11:40:50.922Z,6.00
2022-08-27T11:43:43.366Z,5.57
2022-08-27T11:46:31.884Z,5.43
2022-08-27T11:49:23.021Z,4.90
2022-08-27T11:52:29.904Z,4.87
2022-08-27T11:55:33.664Z,4.90
2022-08-27T11:58:32.283Z,5.10
2022-08-27T12:01:20.297Z,5.20
2022-08-27T12:04:07.230Z,5.30
2022-08-27T12:07:05.429Z,6.10
2022-08-27T12:10:06.114Z,5.87
2022-08-27T12:13:00.655Z,6.00
2022-08-27T12:16:38.851Z,5.40
2022-08-27T12:19:43.412Z,5.83
2022-08-27T12:22:36.618Z,5.70
2022-08-27T12:25:26.137Z,5.80
2022-08-27T12:28:26.790Z,5.80
2022-08-27T12:31:15.052Z,5.00
2022-08-27T12:34:06.969Z,5.43
2022-08-27T12:36:53.971Z,7.47
2022-08-27T12:39:49.039Z,7.13
2022-08-27T12:42:39.836Z,5.73
2022-08-27T12:45:27.344Z,5.80
2022-08-27T12:48:15.928Z,5.93
2022-08-27T12:51:02.947Z,6.27
2022-08-27T12:54:10.111Z,5.53
2022-08-27T12:57:29.274Z,5.73
2022-08-27T13:00:30.012Z,6.00
2022-08-27T13:03:53.448Z,5.53
2022-08-27T13:06:55.453Z,5.30
2022-08-27T13:09:56.842Z,6.20
2022-08-27T13:12:45.044Z,6.47
2022-08-27T13:15:34.377Z,6.00
2022-08-27T13:18:23.753Z,6.00
2022-08-27T13:21:42.355Z,5.63
2022-08-27T13:24:30.422Z,5.37
2022-08-27T13:27:18.252Z,4.90
2022-08-27T13:30:05.328Z,5.27
2022-08-27T13:32:53.262Z,5.50
2022-08-27T13:35:41.028Z,5.43
2022-08-27T13:38:08.609Z,5.60
2022-08-27T13:40:38.668Z,4.83
2022-08-27T13:43:15.561Z,4.90
2022-08-27T13:45:42.850Z,5.70
2022-08-27T13:48:32.516Z,6.80
2022-08-27T13:51:19.553Z,6.60
2022-08-27T13:54:07.654Z,6.50
2022-08-27T13:56:38.816Z,5.83
2022-08-27T13:59:16.628Z,5.53
2022-08-27T14:02:22.822Z,5.23
2022-08-27T14:05:11.850Z,5.57
2022-08-27T14:07:51.660Z,6.30
2022-08-27T14:10:18.775Z,6.57
2022-08-27T14:12:55.774Z,6.30
2022-08-27T14:15:31.678Z,4.87
2022-08-27T14:17:58.816Z,3.70
2022-08-27T14:20:26.384Z,3.03
2022-08-27T14:22:53.645Z,3.20
2022-08-27T14:25:22.403Z,2.90
2022-08-27T14:27:53.931Z,3.20
2022-08-27T14:30:28.888Z,3.33
2022-08-27T14:33:01.388Z,3.00
2022-08-27T14:35:34.533Z,2.60
2022-08-27T14:38:42.623Z,3.17
2022-08-27T14:41:29.553Z,2.80
2022-08-27T14:44:20.377Z,3.17
2022-08-27T14:47:09.572Z,3.17
2022-08-27T14:50:00.635Z,3.20
2022-08-27T14:52:27.737Z,3.63
2022-08-27T14:54:54.649Z,3.13
2022-08-27T14:57:22.775Z,3.20
2022-08-27T14:59:49.790Z,3.20
2022-08-27T15:02:19.109Z,3.30
2022-08-27T15:04:47.902Z,3.33
2022-08-27T15:07:35.699Z,3.10
2022-08-27T15:10:22.630Z,2.70
2022-08-27T15:13:10.073Z,3.33
2022-08-27T15:15:57.295Z,3.00
2022-08-27T15:18:44.429Z,3.20
2022-08-27T15:21:30.498Z,2.87
2022-08-27T15:24:22.024Z,2.90
2022-08-27T15:27:09.529Z,3.03
2022-08-27T15:29:56.989Z,3.07
2022-08-27T15:32:46.508Z,3.03
2022-08-27T15:35:37.142Z,2.73
2022-08-27T15:38:24.079Z,3.63
2022-08-27T15:40:51.481Z,3.80
2022-08-27T15:43:19.353Z,3.27
2022-08-27T15:45:46.484Z,3.10
2022-08-27T15:48:33.370Z,3.30
2022-08-27T15:51:26.350Z,2.70
2022-08-27T15:54:13.477Z,2.87
2022-08-27T15:56:40.452Z,3.70
2022-08-27T15:59:07.452Z,3.57
2022-08-27T16:01:36.730Z,3.23
2022-08-27T16:04:05.096Z,3.73
2022-08-27T16:06:32.413Z,3.47
2022-08-27T16:08:59.560Z,3.43
2022-08-27T16:11:26.643Z,3.57
2022-08-27T16:13:55.560Z,5.10
2022-08-27T16:16:28.184Z,4.50
2022-08-27T16:18:55.449Z,4.03
2022-08-27T16:21:22.887Z,3.70
2022-08-27T16:23:50.131Z,3.43
2022-08-27T16:26:17.173Z,3.83
2022-08-27T16:28:45.885Z,4.30
2022-08-27T16:31:34.227Z,3.80
2022-08-27T16:34:22.877Z,4.20
2022-08-27T16:37:09.861Z,3.90
2022-08-27T16:39:56.856Z,3.00
2022-08-27T16:42:44.402Z,3.40
2022-08-27T16:45:32.624Z,3.40
2022-08-27T16:48:18.445Z,3.70
2022-08-27T16:51:05.402Z,3.90
2022-08-27T16:53:57.297Z,3.40
2022-08-27T16:56:26.272Z,3.27
2022-08-27T16:59:16.467Z,3.33
2022-08-27T17:02:07.934Z,3.20
2022-08-27T17:05:07.379Z,4.20
2022-08-27T17:08:02.454Z,3.50
2022-08-27T17:10:58.105Z,3.00
2022-08-27T17:13:48.413Z,3.30
2022-08-27T17:16:37.953Z,3.40
2022-08-27T17:19:25.636Z,3.33
2022-08-27T17:22:12.845Z,3.10
2022-08-27T17:25:00.065Z,3.50
2022-08-27T17:27:47.144Z,3.57
2022-08-27T17:30:34.285Z,3.50
2022-08-27T17:33:21.400Z,3.30
2022-08-27T17:36:08.368Z,3.50
2022-08-27T17:38:56.076Z,3.43
2022-08-27T17:41:48.918Z,3.57
2022-08-27T17:44:33.499Z,3.77
2022-08-27T17:47:03.068Z,3.67
2022-08-27T17:49:31.210Z,3.90
2022-08-27T17:52:02.402Z,3.97
2022-08-27T17:54:37.646Z,4.17
2022-08-27T17:57:13.941Z,3.83
2022-08-27T17:59:40.917Z,3.80
2022-08-27T18:02:09.789Z,3.80
2022-08-27T18:04:37.975Z,3.73
2022-08-27T18:07:05.071Z,3.60
2022-08-27T18:09:32.007Z,3.60
2022-08-27T18:11:59.414Z,3.50
2022-08-27T18:14:26.553Z,4.20
2022-08-27T18:16:53.865Z,4.43
2022-08-27T18:19:21.052Z,4.60
2022-08-27T18:21:48.033Z,4.23
2022-08-27T18:24:16.109Z,3.90
2022-08-27T18:26:44.815Z,3.97
2022-08-27T18:29:15.205Z,4.27
2022-08-27T18:32:03.207Z,3.90
2022-08-27T18:34:50.052Z,3.57
2022-08-27T18:37:17.222Z,3.67
2022-08-27T18:39:44.787Z,3.93
2022-08-27T18:42:12.809Z,3.90
2022-08-27T18:44:42.692Z,3.70
2022-08-27T18:47:09.769Z,4.03
2022-08-27T18:49:56.900Z,4.00
2022-08-27T18:52:43.886Z,3.97
2022-08-27T18:55:34.141Z,3.90
2022-08-27T18:58:21.169Z,4.80
2022-08-27T19:01:11.759Z,5.00
2022-08-27T19:04:03.612Z,4.90
2022-08-27T19:06:50.802Z,5.90
2022-08-27T19:09:38.933Z,5.27
2022-08-27T19:12:25.992Z,5.83
2022-08-27T19:15:13.066Z,6.23
2022-08-27T19:18:01.960Z,6.57
2022-08-27T19:20:50.515Z,6.50
2022-08-27T19:23:37.721Z,5.30
2022-08-27T19:26:25.575Z,5.07
2022-08-27T19:29:12.749Z,4.07
2022-08-27T19:31:59.757Z,4.77
2022-08-27T19:34:46.816Z,4.60
2022-08-27T19:37:40.347Z,5.13
2022-08-27T19:40:29.395Z,4.80
2022-08-27T19:43:16.441Z,4.97
2022-08-27T19:46:03.629Z,5.10
2022-08-27T19:48:52.369Z,4.67
2022-08-27T19:51:39.760Z,5.10
2022-08-27T19:54:32.720Z,4.97
2022-08-27T19:57:20.989Z,4.83
2022-08-27T20:00:07.973Z,5.03
2022-08-27T20:02:56.439Z,5.37
2022-08-27T20:05:43.275Z,5.03
2022-08-27T20:08:30.752Z,4.90
2022-08-27T20:11:17.640Z,5.10
2022-08-27T20:14:10.376Z,4.53
2022-08-27T20:16:57.648Z,4.50
2022-08-27T20:19:46.322Z,4.50
2022-08-27T20:22:36.612Z,4.37
2022-08-27T20:25:24.112Z,4.63
2022-08-27T20:28:35.406Z,4.20
2022-08-27T20:31:18.867Z,4.50
2022-08-27T20:34:05.791Z,4.23
2022-08-27T20:36:53.884Z,4.30
2022-08-27T20:39:40.827Z,4.17
2022-08-27T20:42:27.848Z,4.07
2022-08-27T20:45:14.940Z,4.00
2022-08-27T20:48:04.302Z,3.60
2022-08-27T20:50:51.884Z,3.80
2022-08-27T20:53:39.081Z,3.90
2022-08-27T20:56:26.477Z,3.43
2022-08-27T20:59:29.260Z,3.30
2022-08-27T21:02:16.458Z,3.67
2022-08-27T21:05:08.709Z,2.80
2022-08-27T21:07:55.700Z,2.43
2022-08-27T21:10:42.716Z,2.80
2022-08-27T21:13:29.655Z,2.97
2022-08-27T21:16:16.960Z,2.80
2022-08-27T21:19:04.237Z,2.90
2022-08-27T21:21:51.314Z,2.23
2022-08-27T21:24:39.268Z,2.47
2022-08-27T21:27:26.375Z,1.90
2022-08-27T21:30:13.755Z,1.80
2022-08-27T21:33:00.812Z,1.77
2022-08-27T21:35:50.494Z,1.43
2022-08-27T21:38:37.421Z,1.70
2022-08-27T21:41:24.381Z,1.70
2022-08-27T21:44:11.937Z,1.40
2022-08-27T21:46:58.958Z,1.70
2022-08-27T21:49:46.001Z,1.47
2022-08-27T21:52:33.068Z,1.60
2022-08-27T21:55:20.320Z,1.30
2022-08-27T21:58:07.448Z,1.50
2022-08-27T22:01:06.841Z,1.50
2022-08-27T22:03:55.611Z,1.50
2022-08-27T22:06:42.541Z,1.50
2022-08-27T22:09:29.793Z,1.50
2022-08-27T22:12:16.964Z,1.80
2022-08-27T22:15:03.872Z,1.47
2022-08-27T22:17:51.525Z,1.60
2022-08-27T22:20:38.851Z,1.60
2022-08-27T22:23:28.987Z,1.37
2022-08-27T22:26:15.919Z,1.50
2022-08-27T22:29:03.899Z,1.50
2022-08-27T22:31:52.961Z,1.53
2022-08-27T22:34:40.114Z,1.40
2022-08-27T22:37:27.036Z,1.50
2022-08-27T22:40:20.036Z,1.50
2022-08-27T22:43:08.217Z,1.33
2022-08-27T22:45:55.208Z,1.30
2022-08-27T22:48:42.243Z,1.33
2022-08-27T22:51:31.124Z,1.20
2022-08-27T22:53:58.226Z,1.67
2022-08-27T22:56:25.248Z,1.27
2022-08-27T22:58:52.201Z,0.90
2022-08-27T23:01:20.921Z,0.97
2022-08-27T23:03:48.290Z,1.30
2022-08-27T23:06:15.517Z,1.00
2022-08-27T23:08:42.441Z,0.97
2022-08-27T23:11:09.377Z,1.20
2022-08-27T23:13:36.558Z,1.00
2022-08-27T23:16:03.757Z,1.13
2022-08-27T23:18:30.905Z,1.10
2022-08-27T23:20:58.521Z,1.27
2022-08-27T23:23:30.863Z,1.13
2022-08-27T23:26:17.058Z,1.00
2022-08-27T23:28:45.197Z,1.43
2022-08-27T23:31:13.087Z,1.40
2022-08-27T23:33:40.663Z,1.20
2022-08-27T23:36:08.126Z,1.20
2022-08-27T23:38:35.046Z,0.80
2022-08-27T23:41:02.252Z,1.40
2022-08-27T23:43:30.233Z,1.10
2022-08-27T23:45:57.422Z,1.33
2022-08-27T23:48:24.976Z,1.00
2022-08-27T23:50:52.108Z,1.20
2022-08-27T23:53:19.047Z,1.13
2022-08-27T23:55:46.148Z,1.40
2022-08-27T23:58:13.480Z,1.10
